createdAt,value
2017-08-12T00:00:32.775Z,1008.28
2017-08-12T00:01:32.763Z,1008.31
2017-08-12T00:02:32.741Z,1008.29
2017-08-12T00:03:32.731Z,1008.29
2017-08-12T00:04:32.712Z,1008.28
2017-08-12T00:05:32.763Z,1008.32
2017-08-12T00:06:32.681Z,1008.33
2017-08-12T00:07:32.659Z,1008.31
2017-08-12T00:08:32.643Z,1008.36
2017-08-12T00:09:32.626Z,1008.32
2017-08-12T00:10:32.611Z,1008.32
2017-08-12T00:11:32.594Z,1008.33
2017-08-12T00:12:32.573Z,1008.28
2017-08-12T00:13:32.569Z,1008.27
2017-08-12T00:14:32.543Z,1008.27
2017-08-12T00:15:32.524Z,1008.24
2017-08-12T00:16:32.503Z,1008.25
2017-08-12T00:17:32.541Z,1008.24
2017-08-12T00:18:32.467Z,1008.22
2017-08-12T00:19:32.460Z,1008.2
2017-08-12T00:20:32.442Z,1008.21
2017-08-12T00:21:32.422Z,1008.24
2017-08-12T00:22:32.403Z,1008.25
2017-08-12T00:23:32.386Z,1008.26
2017-08-12T00:24:32.368Z,1008.18
2017-08-12T00:25:32.350Z,1008.24
2017-08-12T00:26:32.335Z,1008.21
2017-08-12T00:27:32.321Z,1008.19
2017-08-12T00:28:32.303Z,1008.18
2017-08-12T00:29:32.288Z,1008.18
2017-08-12T00:30:32.271Z,1008.15
2017-08-12T00:31:32.351Z,1008.16
2017-08-12T00:32:32.232Z,1008.12
2017-08-12T00:33:32.317Z,1008.15
2017-08-12T00:34:32.200Z,1008.09
2017-08-12T00:35:32.240Z,1008.13
2017-08-12T00:36:32.170Z,1008.1
2017-08-12T00:37:32.302Z,1008.11
2017-08-12T00:38:32.132Z,1008.11
2017-08-12T00:39:32.117Z,1008.11
2017-08-12T00:40:32.101Z,1008.09
2017-08-12T00:41:32.079Z,1008.11
2017-08-12T00:42:32.069Z,1008.12
2017-08-12T00:43:32.051Z,1008.1
2017-08-12T00:44:32.028Z,1008.07
2017-08-12T00:45:32.019Z,1008.04
2017-08-12T00:46:32.000Z,1008.01
2017-08-12T00:47:32.235Z,1008.04
2017-08-12T00:48:31.962Z,1008.02
2017-08-12T00:49:31.953Z,1007.99
2017-08-12T00:50:31.929Z,1007.97
2017-08-12T00:51:31.911Z,1007.99
2017-08-12T00:52:31.893Z,1007.97
2017-08-12T00:53:31.881Z,1008
2017-08-12T00:54:31.864Z,1007.95
2017-08-12T00:55:31.849Z,1007.98
2017-08-12T00:56:31.829Z,1007.98
2017-08-12T00:57:31.814Z,1007.99
2017-08-12T00:58:31.799Z,1007.98
2017-08-12T00:59:31.781Z,1007.94
2017-08-12T01:00:31.761Z,1007.94
2017-08-12T01:01:31.743Z,1007.93
2017-08-12T01:02:31.733Z,1007.95
2017-08-12T01:03:31.721Z,1007.99
2017-08-12T01:04:31.703Z,1007.99
2017-08-12T01:05:31.680Z,1008.02
2017-08-12T01:06:31.660Z,1007.99
2017-08-12T01:07:31.643Z,1007.98
2017-08-12T01:08:31.633Z,1008
2017-08-12T01:09:31.610Z,1007.95
2017-08-12T01:10:31.602Z,1007.94
2017-08-12T01:11:31.579Z,1007.95
2017-08-12T01:12:31.574Z,1007.95
2017-08-12T01:13:31.547Z,1007.93
2017-08-12T01:14:31.530Z,1007.95
2017-08-12T01:15:31.510Z,1007.91
2017-08-12T01:16:31.498Z,1007.9
2017-08-12T01:17:31.483Z,1007.91
2017-08-12T01:18:31.462Z,1007.87
2017-08-12T01:19:31.440Z,1007.88
2017-08-12T01:20:31.422Z,1007.89
2017-08-12T01:21:31.414Z,1007.88
2017-08-12T01:22:31.393Z,1007.87
2017-08-12T01:23:31.373Z,1007.83
2017-08-12T01:24:31.356Z,1007.86
2017-08-12T01:25:31.342Z,1007.85
2017-08-12T01:26:31.333Z,1007.84
2017-08-12T01:27:31.312Z,1007.84
2017-08-12T01:28:31.290Z,1007.83
2017-08-12T01:29:31.281Z,1007.82
2017-08-12T01:30:31.261Z,1007.83
2017-08-12T01:31:31.241Z,1007.82
2017-08-12T01:32:31.226Z,1007.81
2017-08-12T01:33:31.213Z,1007.81
2017-08-12T01:34:31.215Z,1007.78
2017-08-12T01:35:31.173Z,1007.83
2017-08-12T01:36:31.159Z,1007.78
2017-08-12T01:37:31.141Z,1007.77
2017-08-12T01:38:31.133Z,1007.76
2017-08-12T01:39:31.111Z,1007.73
2017-08-12T01:40:31.120Z,1007.76
2017-08-12T01:41:31.076Z,1007.75
2017-08-12T01:42:31.061Z,1007.76
2017-08-12T01:43:31.044Z,1007.74
2017-08-12T01:44:31.021Z,1007.76
2017-08-12T01:45:31.012Z,1007.74
2017-08-12T01:46:30.984Z,1007.73
2017-08-12T01:47:30.970Z,1007.75
2017-08-12T01:48:30.953Z,1007.74
2017-08-12T01:49:30.944Z,1007.73
2017-08-12T01:50:30.923Z,1007.75
2017-08-12T01:51:30.899Z,1007.74
2017-08-12T01:52:30.882Z,1007.79
2017-08-12T01:53:30.867Z,1007.78
2017-08-12T01:54:30.857Z,1007.78
2017-08-12T01:55:30.836Z,1007.77
2017-08-12T01:56:30.829Z,1007.75
2017-08-12T01:57:30.796Z,1007.75
2017-08-12T01:58:30.781Z,1007.76
2017-08-12T01:59:30.765Z,1007.76
2017-08-12T02:00:30.749Z,1007.77
2017-08-12T02:01:30.732Z,1007.74
2017-08-12T02:02:30.717Z,1007.75
2017-08-12T02:03:30.701Z,1007.76
2017-08-12T02:04:30.680Z,1007.75
2017-08-12T02:05:30.661Z,1007.73
2017-08-12T02:06:30.647Z,1007.7
2017-08-12T02:07:30.630Z,1007.72
2017-08-12T02:08:30.608Z,1007.74
2017-08-12T02:09:30.593Z,1007.75
2017-08-12T02:10:30.575Z,1007.7
2017-08-12T02:11:30.559Z,1007.69
2017-08-12T02:12:30.542Z,1007.69
2017-08-12T02:13:30.526Z,1007.71
2017-08-12T02:14:30.511Z,1007.7
2017-08-12T02:15:30.492Z,1007.68
2017-08-12T02:16:30.476Z,1007.64
2017-08-12T02:17:30.459Z,1007.66
2017-08-12T02:18:30.440Z,1007.63
2017-08-12T02:19:30.422Z,1007.63
2017-08-12T02:20:30.409Z,1007.64
2017-08-12T02:21:30.393Z,1007.61
2017-08-12T02:22:30.370Z,1007.61
2017-08-12T02:23:30.357Z,1007.58
2017-08-12T02:24:30.343Z,1007.55
2017-08-12T02:25:30.323Z,1007.56
2017-08-12T02:26:30.311Z,1007.51
2017-08-12T02:27:30.285Z,1007.54
2017-08-12T02:28:30.268Z,1007.54
2017-08-12T02:29:30.254Z,1007.59
2017-08-12T02:30:30.241Z,1007.53
2017-08-12T02:31:30.220Z,1007.54
2017-08-12T02:32:30.204Z,1007.46
2017-08-12T02:33:30.185Z,1007.46
2017-08-12T02:34:30.166Z,1007.45
2017-08-12T02:35:30.151Z,1007.45
2017-08-12T02:36:30.138Z,1007.44
2017-08-12T02:37:30.122Z,1007.4
2017-08-12T02:38:30.097Z,1007.41
2017-08-12T02:39:30.081Z,1007.39
2017-08-12T02:40:30.063Z,1007.4
2017-08-12T02:41:30.049Z,1007.44
2017-08-12T02:42:30.030Z,1007.43
2017-08-12T02:43:30.020Z,1007.42
2017-08-12T02:44:30.001Z,1007.49
2017-08-12T02:45:29.981Z,1007.48
2017-08-12T02:46:29.960Z,1007.48
2017-08-12T02:47:29.950Z,1007.47
2017-08-12T02:48:29.932Z,1007.45
2017-08-12T02:49:29.908Z,1007.44
2017-08-12T02:50:29.891Z,1007.42
2017-08-12T02:51:29.877Z,1007.39
2017-08-12T02:52:29.862Z,1007.39
2017-08-12T02:53:29.838Z,1007.34
2017-08-12T02:54:29.820Z,1007.26
2017-08-12T02:55:29.806Z,1007.26
2017-08-12T02:56:29.790Z,1007.24
2017-08-12T02:57:29.768Z,1007.29
2017-08-12T02:58:29.749Z,1007.26
2017-08-12T02:59:29.741Z,1007.23
2017-08-12T03:00:29.720Z,1007.27
2017-08-12T03:01:29.699Z,1007.24
2017-08-12T03:02:29.683Z,1007.24
2017-08-12T03:03:29.680Z,1007.25
2017-08-12T03:04:29.648Z,1007.23
2017-08-12T03:05:29.630Z,1007.19
2017-08-12T03:06:29.619Z,1007.2
2017-08-12T03:07:29.598Z,1007.21
2017-08-12T03:08:29.577Z,1007.15
2017-08-12T03:09:29.572Z,1007.13
2017-08-12T03:10:29.549Z,1007.09
2017-08-12T03:11:29.529Z,1007.09
2017-08-12T03:12:29.511Z,1007.08
2017-08-12T03:13:29.499Z,1007.03
2017-08-12T03:14:29.481Z,1007.04
2017-08-12T03:15:29.462Z,1006.96
2017-08-12T03:16:29.439Z,1006.96
2017-08-12T03:17:29.422Z,1006.94
2017-08-12T03:18:29.407Z,1006.91
2017-08-12T03:19:29.388Z,1006.96
2017-08-12T03:20:29.374Z,1006.93
2017-08-12T03:21:29.360Z,1006.95
2017-08-12T03:22:29.339Z,1006.99
2017-08-12T03:23:29.319Z,1007.05
2017-08-12T03:24:29.309Z,1007.06
2017-08-12T03:25:29.294Z,1007.06
2017-08-12T03:26:29.271Z,1007.07
2017-08-12T03:27:29.249Z,1007.04
2017-08-12T03:28:29.243Z,1007.08
2017-08-12T03:29:29.218Z,1007.06
2017-08-12T03:30:29.202Z,1007.11
2017-08-12T03:31:29.179Z,1007.06
2017-08-12T03:32:29.168Z,1007.07
2017-08-12T03:33:29.150Z,1007.02
2017-08-12T03:34:29.133Z,1007.05
2017-08-12T03:35:29.118Z,1007.05
2017-08-12T03:36:29.102Z,1007.07
2017-08-12T03:37:29.080Z,1007.08
2017-08-12T03:38:29.073Z,1007.12
2017-08-12T03:39:29.045Z,1007.04
2017-08-12T03:40:29.030Z,1007.01
2017-08-12T03:41:29.010Z,1006.99
2017-08-12T03:42:28.997Z,1007.01
2017-08-12T03:43:28.981Z,1007.01
2017-08-12T03:44:28.960Z,1006.97
2017-08-12T03:45:28.941Z,1007.02
2017-08-12T03:46:29.011Z,1006.99
2017-08-12T03:47:28.910Z,1007.02
2017-08-12T03:48:28.891Z,1007.01
2017-08-12T03:49:28.871Z,1007
2017-08-12T03:50:28.927Z,1006.99
2017-08-12T03:51:28.838Z,1006.98
2017-08-12T03:52:28.904Z,1006.98
2017-08-12T03:53:28.803Z,1006.92
2017-08-12T03:54:28.792Z,1006.94
2017-08-12T03:55:28.773Z,1006.92
2017-08-12T03:56:28.750Z,1006.93
2017-08-12T03:57:28.730Z,1006.92
2017-08-12T03:58:28.715Z,1006.88
2017-08-12T03:59:28.698Z,1006.94
2017-08-12T04:00:28.729Z,1006.93
2017-08-12T04:01:28.661Z,1006.95
2017-08-12T04:02:28.644Z,1006.92
2017-08-12T04:03:28.631Z,1006.95
2017-08-12T04:04:28.611Z,1006.99
2017-08-12T04:05:28.587Z,1006.97
2017-08-12T04:06:28.574Z,1006.99
2017-08-12T04:07:28.556Z,1006.97
2017-08-12T04:08:28.540Z,1006.94
2017-08-12T04:09:28.519Z,1006.94
2017-08-12T04:10:28.570Z,1006.94
2017-08-12T04:11:28.488Z,1006.98
2017-08-12T04:12:28.615Z,1006.96
2017-08-12T04:13:28.450Z,1006.97
2017-08-12T04:14:28.439Z,1006.97
2017-08-12T04:15:28.422Z,1006.94
2017-08-12T04:16:28.401Z,1006.96
2017-08-12T04:17:28.394Z,1007.01
2017-08-12T04:18:28.361Z,1007.02
2017-08-12T04:19:28.350Z,1007.05
2017-08-12T04:20:28.330Z,1007.05
2017-08-12T04:21:28.311Z,1007.05
2017-08-12T04:22:28.292Z,1007.07
2017-08-12T04:23:28.271Z,1007.07
2017-08-12T04:24:28.255Z,1007.04
2017-08-12T04:25:28.241Z,1007.01
2017-08-12T04:26:28.221Z,1007.04
2017-08-12T04:27:28.202Z,1007.01
2017-08-12T04:28:28.193Z,1006.99
2017-08-12T04:29:28.170Z,1007.02
2017-08-12T04:30:28.152Z,1007.02
2017-08-12T04:31:28.131Z,1006.99
2017-08-12T04:32:28.112Z,1007.04
2017-08-12T04:33:28.096Z,1006.99
2017-08-12T04:34:28.080Z,1007
2017-08-12T04:35:28.060Z,1006.97
2017-08-12T04:36:28.051Z,1006.98
2017-08-12T04:37:28.030Z,1007.01
2017-08-12T04:38:28.014Z,1007
2017-08-12T04:39:27.989Z,1007.01
2017-08-12T04:40:27.979Z,1007.06
2017-08-12T04:41:27.959Z,1007.02
2017-08-12T04:42:27.941Z,1007.02
2017-08-12T04:43:27.926Z,1007.07
2017-08-12T04:44:27.911Z,1007.04
2017-08-12T04:45:27.893Z,1007.02
2017-08-12T04:46:27.870Z,1007.07
2017-08-12T04:47:27.860Z,1007.04
2017-08-12T04:48:27.841Z,1007.06
2017-08-12T04:49:27.823Z,1007.04
2017-08-12T04:50:27.803Z,1007.02
2017-08-12T04:51:27.792Z,1007.01
2017-08-12T04:52:27.768Z,1007.02
2017-08-12T04:53:27.750Z,1007.03
2017-08-12T04:54:27.732Z,1007.05
2017-08-12T04:55:27.717Z,1007.05
2017-08-12T04:56:27.695Z,1007.01
2017-08-12T04:57:27.680Z,1007.05
2017-08-12T04:58:27.661Z,1007.06
2017-08-12T04:59:27.647Z,1007.04
2017-08-12T05:00:27.632Z,1007.01
2017-08-12T05:01:27.614Z,1007.06
2017-08-12T05:02:27.601Z,1007.03
2017-08-12T05:03:27.583Z,1007.03
2017-08-12T05:04:27.565Z,1006.97
2017-08-12T05:05:27.542Z,1006.97
2017-08-12T05:06:27.527Z,1006.99
2017-08-12T05:07:27.512Z,1006.99
2017-08-12T05:08:27.488Z,1006.97
2017-08-12T05:09:27.472Z,1006.97
2017-08-12T05:10:27.456Z,1007.05
2017-08-12T05:11:27.443Z,1006.99
2017-08-12T05:12:27.418Z,1006.98
2017-08-12T05:13:27.403Z,1006.96
2017-08-12T05:14:27.393Z,1006.99
2017-08-12T05:15:27.366Z,1006.97
2017-08-12T05:16:27.352Z,1006.95
2017-08-12T05:17:27.339Z,1006.97
2017-08-12T05:18:27.322Z,1006.94
2017-08-12T05:19:27.301Z,1006.97
2017-08-12T05:20:27.281Z,1006.98
2017-08-12T05:21:27.268Z,1006.96
2017-08-12T05:22:27.254Z,1006.92
2017-08-12T05:23:27.230Z,1006.94
2017-08-12T05:24:27.219Z,1006.95
2017-08-12T05:25:27.200Z,1006.97
2017-08-12T05:26:27.177Z,1006.93
2017-08-12T05:27:27.162Z,1006.94
2017-08-12T05:28:27.147Z,1006.92
2017-08-12T05:29:27.131Z,1006.98
2017-08-12T05:30:27.122Z,1006.92
2017-08-12T05:31:27.092Z,1006.95
2017-08-12T05:32:27.075Z,1006.97
2017-08-12T05:33:27.072Z,1006.99
2017-08-12T05:34:27.041Z,1007
2017-08-12T05:35:27.032Z,1007
2017-08-12T05:36:27.006Z,1006.96
2017-08-12T05:37:26.993Z,1006.99
2017-08-12T05:38:26.974Z,1006.94
2017-08-12T05:39:26.959Z,1006.93
2017-08-12T05:40:26.945Z,1006.92
2017-08-12T05:41:26.921Z,1006.93
2017-08-12T05:42:26.903Z,1006.9
2017-08-12T05:43:26.890Z,1006.91
2017-08-12T05:44:26.872Z,1006.9
2017-08-12T05:45:26.848Z,1006.98
2017-08-12T05:46:26.842Z,1006.97
2017-08-12T05:47:26.820Z,1006.97
2017-08-12T05:48:26.801Z,1006.98
2017-08-12T05:49:26.793Z,1006.94
2017-08-12T05:50:26.765Z,1006.95
2017-08-12T05:51:26.750Z,1006.94
2017-08-12T05:52:26.732Z,1006.95
2017-08-12T05:53:26.712Z,1006.95
2017-08-12T05:54:26.702Z,1006.91
2017-08-12T05:55:26.676Z,1006.97
2017-08-12T05:56:26.663Z,1006.94
2017-08-12T05:57:26.643Z,1006.97
2017-08-12T05:58:26.624Z,1007
2017-08-12T05:59:26.607Z,1007
2017-08-12T06:00:26.592Z,1007
2017-08-12T06:01:26.572Z,1006.97
2017-08-12T06:02:26.557Z,1006.97
2017-08-12T06:03:26.542Z,1007.03
2017-08-12T06:04:26.524Z,1006.97
2017-08-12T06:05:26.505Z,1006.99
2017-08-12T06:06:26.490Z,1007.02
2017-08-12T06:07:26.474Z,1007.01
2017-08-12T06:08:26.453Z,1007.04
2017-08-12T06:09:26.442Z,1007.05
2017-08-12T06:10:26.441Z,1007.05
2017-08-12T06:11:26.403Z,1007.12
2017-08-12T06:12:26.385Z,1007.05
2017-08-12T06:13:26.365Z,1007.12
2017-08-12T06:14:26.351Z,1007.11
2017-08-12T06:15:26.337Z,1007.16
2017-08-12T06:16:26.323Z,1007.15
2017-08-12T06:17:26.303Z,1007.19
2017-08-12T06:18:26.281Z,1007.15
2017-08-12T06:19:26.264Z,1007.17
2017-08-12T06:20:26.252Z,1007.16
2017-08-12T06:21:26.229Z,1007.19
2017-08-12T06:22:26.212Z,1007.18
2017-08-12T06:23:26.194Z,1007.24
2017-08-12T06:24:26.183Z,1007.21
2017-08-12T06:25:26.179Z,1007.22
2017-08-12T06:26:26.145Z,1007.22
2017-08-12T06:27:26.134Z,1007.25
2017-08-12T06:28:26.111Z,1007.22
2017-08-12T06:29:26.100Z,1007.27
2017-08-12T06:30:26.071Z,1007.25
2017-08-12T06:31:26.056Z,1007.24
2017-08-12T06:32:26.040Z,1007.28
2017-08-12T06:33:26.021Z,1007.23
2017-08-12T06:34:26.012Z,1007.26
2017-08-12T06:35:25.986Z,1007.25
2017-08-12T06:36:25.971Z,1007.24
2017-08-12T06:37:25.953Z,1007.23
2017-08-12T06:38:25.941Z,1007.21
2017-08-12T06:39:25.918Z,1007.2
2017-08-12T06:40:25.899Z,1007.19
2017-08-12T06:41:25.882Z,1007.22
2017-08-12T06:42:25.869Z,1007.15
2017-08-12T06:43:25.853Z,1007.21
2017-08-12T06:44:25.830Z,1007.23
2017-08-12T06:45:25.813Z,1007.25
2017-08-12T06:46:25.799Z,1007.25
2017-08-12T06:47:25.782Z,1007.22
2017-08-12T06:48:25.761Z,1007.25
2017-08-12T06:49:25.742Z,1007.22
2017-08-12T06:50:25.726Z,1007.23
2017-08-12T06:51:25.710Z,1007.2
2017-08-12T06:52:25.693Z,1007.19
2017-08-12T06:53:25.672Z,1007.21
2017-08-12T06:54:25.655Z,1007.22
2017-08-12T06:55:25.643Z,1007.23
2017-08-12T06:56:25.622Z,1007.21
2017-08-12T06:57:25.612Z,1007.31
2017-08-12T06:58:25.585Z,1007.23
2017-08-12T06:59:25.568Z,1007.21
2017-08-12T07:00:25.554Z,1007.22
2017-08-12T07:01:25.531Z,1007.18
2017-08-12T07:02:25.515Z,1007.17
2017-08-12T07:03:25.500Z,1007.16
2017-08-12T07:04:25.483Z,1007.18
2017-08-12T07:05:25.467Z,1007.24
2017-08-12T07:06:25.454Z,1007.22
2017-08-12T07:07:25.431Z,1007.27
2017-08-12T07:08:25.415Z,1007.24
2017-08-12T07:09:25.395Z,1007.23
2017-08-12T07:10:25.375Z,1007.24
2017-08-12T07:11:25.358Z,1007.2
2017-08-12T07:12:25.345Z,1007.23
2017-08-12T07:13:25.326Z,1007.23
2017-08-12T07:14:25.310Z,1007.22
2017-08-12T07:15:25.293Z,1007.21
2017-08-12T07:16:25.270Z,1007.23
2017-08-12T07:17:25.255Z,1007.2
2017-08-12T07:18:25.241Z,1007.2
2017-08-12T07:19:25.218Z,1007.24
2017-08-12T07:20:25.202Z,1007.24
2017-08-12T07:21:25.193Z,1007.24
2017-08-12T07:22:25.176Z,1007.23
2017-08-12T07:23:25.152Z,1007.23
2017-08-12T07:24:25.132Z,1007.23
2017-08-12T07:25:25.117Z,1007.24
2017-08-12T07:26:25.099Z,1007.23
2017-08-12T07:27:25.082Z,1007.25
2017-08-12T07:28:25.063Z,1007.23
2017-08-12T07:29:25.049Z,1007.21
2017-08-12T07:30:25.027Z,1007.25
2017-08-12T07:31:25.014Z,1007.18
2017-08-12T07:32:24.995Z,1007.18
2017-08-12T07:33:24.982Z,1007.19
2017-08-12T07:34:24.964Z,1007.15
2017-08-12T07:35:24.942Z,1007.15
2017-08-12T07:36:24.927Z,1007.12
2017-08-12T07:37:24.912Z,1007.15
2017-08-12T07:38:24.893Z,1007.15
2017-08-12T07:39:24.875Z,1007.17
2017-08-12T07:40:24.856Z,1007.2
2017-08-12T07:41:24.838Z,1007.2
2017-08-12T07:42:24.821Z,1007.18
2017-08-12T07:43:24.806Z,1007.21
2017-08-12T07:44:24.792Z,1007.19
2017-08-12T07:45:24.766Z,1007.26
2017-08-12T07:46:24.751Z,1007.24
2017-08-12T07:47:24.734Z,1007.23
2017-08-12T07:48:24.720Z,1007.26
2017-08-12T07:49:24.697Z,1007.25
2017-08-12T07:50:24.684Z,1007.25
2017-08-12T07:51:24.662Z,1007.22
2017-08-12T07:52:24.648Z,1007.25
2017-08-12T07:53:24.634Z,1007.15
2017-08-12T07:54:24.614Z,1007.18
2017-08-12T07:55:24.601Z,1007.18
2017-08-12T07:56:24.580Z,1007.13
2017-08-12T07:57:24.563Z,1007.17
2017-08-12T07:58:24.542Z,1007.18
2017-08-12T07:59:24.524Z,1007.16
2017-08-12T08:00:24.513Z,1007.19
2017-08-12T08:01:24.491Z,1007.18
2017-08-12T08:02:24.474Z,1007.24
2017-08-12T08:03:24.459Z,1007.21
2017-08-12T08:04:24.442Z,1007.19
2017-08-12T08:05:24.430Z,1007.21
2017-08-12T08:06:24.403Z,1007.21
2017-08-12T08:07:24.385Z,1007.27
2017-08-12T08:08:24.374Z,1007.22
2017-08-12T08:09:24.354Z,1007.23
2017-08-12T08:10:24.333Z,1007.23
2017-08-12T08:11:24.322Z,1007.24
2017-08-12T08:12:24.298Z,1007.27
2017-08-12T08:13:24.284Z,1007.3
2017-08-12T08:14:24.273Z,1007.27
2017-08-12T08:15:24.253Z,1007.25
2017-08-12T08:16:24.232Z,1007.25
2017-08-12T08:17:24.224Z,1007.29
2017-08-12T08:18:24.202Z,1007.26
2017-08-12T08:19:24.179Z,1007.27
2017-08-12T08:20:24.173Z,1007.27
2017-08-12T08:21:24.155Z,1007.27
2017-08-12T08:22:24.134Z,1007.3
2017-08-12T08:23:24.113Z,1007.31
2017-08-12T08:24:24.104Z,1007.25
2017-08-12T08:25:24.077Z,1007.27
2017-08-12T08:26:24.071Z,1007.27
2017-08-12T08:27:24.044Z,1007.29
2017-08-12T08:28:24.033Z,1007.31
2017-08-12T08:29:24.010Z,1007.26
2017-08-12T08:30:23.991Z,1007.3
2017-08-12T08:31:23.973Z,1007.28
2017-08-12T08:32:23.962Z,1007.31
2017-08-12T08:33:23.946Z,1007.31
2017-08-12T08:34:23.924Z,1007.33
2017-08-12T08:35:23.911Z,1007.32
2017-08-12T08:36:23.889Z,1007.31
2017-08-12T08:37:23.876Z,1007.32
2017-08-12T08:38:23.854Z,1007.27
2017-08-12T08:39:23.845Z,1007.27
2017-08-12T08:40:23.818Z,1007.29
2017-08-12T08:41:23.801Z,1007.31
2017-08-12T08:42:23.783Z,1007.3
2017-08-12T08:43:23.825Z,1007.31
2017-08-12T08:44:23.755Z,1007.29
2017-08-12T08:45:23.782Z,1007.3
2017-08-12T08:46:23.721Z,1007.29
2017-08-12T08:47:23.699Z,1007.28
2017-08-12T08:48:23.684Z,1007.29
2017-08-12T08:49:23.673Z,1007.28
2017-08-12T08:50:23.649Z,1007.28
2017-08-12T08:51:23.631Z,1007.26
2017-08-12T08:52:23.615Z,1007.26
2017-08-12T08:53:23.605Z,1007.26
2017-08-12T08:54:23.581Z,1007.22
2017-08-12T08:55:23.573Z,1007.25
2017-08-12T08:56:23.549Z,1007.23
2017-08-12T08:57:23.535Z,1007.24
2017-08-12T08:58:23.514Z,1007.27
2017-08-12T08:59:23.501Z,1007.25
2017-08-12T09:00:23.481Z,1007.25
2017-08-12T09:01:23.519Z,1007.3
2017-08-12T09:02:23.450Z,1007.25
2017-08-12T09:03:23.430Z,1007.32
2017-08-12T09:04:23.413Z,1007.25
2017-08-12T09:05:23.402Z,1007.27
2017-08-12T09:06:23.388Z,1007.25
2017-08-12T09:07:23.365Z,1007.25
2017-08-12T09:08:23.369Z,1007.25
2017-08-12T09:09:23.329Z,1007.22
2017-08-12T09:10:23.312Z,1007.26
2017-08-12T09:11:23.294Z,1007.25
2017-08-12T09:12:23.281Z,1007.26
2017-08-12T09:13:23.260Z,1007.27
2017-08-12T09:14:23.252Z,1007.26
2017-08-12T09:15:23.230Z,1007.28
2017-08-12T09:16:23.216Z,1007.28
2017-08-12T09:17:23.201Z,1007.28
2017-08-12T09:18:23.181Z,1007.3
2017-08-12T09:19:23.162Z,1007.28
2017-08-12T09:20:23.151Z,1007.27
2017-08-12T09:21:23.130Z,1007.3
2017-08-12T09:22:23.133Z,1007.33
2017-08-12T09:23:23.102Z,1007.27
2017-08-12T09:24:23.093Z,1007.27
2017-08-12T09:25:23.063Z,1007.28
2017-08-12T09:26:23.051Z,1007.24
2017-08-12T09:27:23.037Z,1007.26
2017-08-12T09:28:23.017Z,1007.27
2017-08-12T09:29:23.002Z,1007.27
2017-08-12T09:30:22.980Z,1007.29
2017-08-12T09:31:22.972Z,1007.23
2017-08-12T09:32:22.953Z,1007.29
2017-08-12T09:33:22.932Z,1007.25
2017-08-12T09:34:22.917Z,1007.27
2017-08-12T09:35:22.901Z,1007.27
2017-08-12T09:36:22.886Z,1007.26
2017-08-12T09:37:22.872Z,1007.24
2017-08-12T09:38:22.853Z,1007.28
2017-08-12T09:39:22.830Z,1007.27
2017-08-12T09:40:22.822Z,1007.26
2017-08-12T09:41:22.798Z,1007.29
2017-08-12T09:42:22.782Z,1007.28
2017-08-12T09:43:22.765Z,1007.27
2017-08-12T09:44:22.746Z,1007.27
2017-08-12T09:45:22.729Z,1007.3
2017-08-12T09:46:22.721Z,1007.31
2017-08-12T09:47:22.699Z,1007.31
2017-08-12T09:48:22.684Z,1007.29
2017-08-12T09:49:22.671Z,1007.32
2017-08-12T09:50:22.650Z,1007.3
2017-08-12T09:51:22.636Z,1007.3
2017-08-12T09:52:22.621Z,1007.33
2017-08-12T09:53:22.603Z,1007.26
2017-08-12T09:54:22.580Z,1007.34
2017-08-12T09:55:22.564Z,1007.4
2017-08-12T09:56:22.551Z,1007.36
2017-08-12T09:57:22.531Z,1007.4
2017-08-12T09:58:22.530Z,1007.38
2017-08-12T09:59:22.516Z,1007.37
2017-08-12T10:00:22.481Z,1007.37
2017-08-12T10:01:22.473Z,1007.41
2017-08-12T10:02:22.449Z,1007.39
2017-08-12T10:03:22.432Z,1007.38
2017-08-12T10:04:22.420Z,1007.42
2017-08-12T10:05:22.398Z,1007.37
2017-08-12T10:06:22.383Z,1007.35
2017-08-12T10:07:22.367Z,1007.37
2017-08-12T10:08:22.351Z,1007.4
2017-08-12T10:09:22.328Z,1007.36
2017-08-12T10:10:22.320Z,1007.36
2017-08-12T10:11:22.300Z,1007.39
2017-08-12T10:12:22.280Z,1007.41
2017-08-12T10:13:22.276Z,1007.36
2017-08-12T10:14:22.254Z,1007.33
2017-08-12T10:15:22.229Z,1007.37
2017-08-12T10:16:22.221Z,1007.33
2017-08-12T10:17:22.198Z,1007.33
2017-08-12T10:18:22.180Z,1007.38
2017-08-12T10:19:22.168Z,1007.33
2017-08-12T10:20:22.150Z,1007.29
2017-08-12T10:21:22.130Z,1007.32
2017-08-12T10:22:22.113Z,1007.33
2017-08-12T10:23:22.102Z,1007.31
2017-08-12T10:24:22.080Z,1007.34
2017-08-12T10:25:22.069Z,1007.35
2017-08-12T10:26:22.051Z,1007.36
2017-08-12T10:27:22.030Z,1007.37
2017-08-12T10:28:22.021Z,1007.36
2017-08-12T10:29:22.000Z,1007.41
2017-08-12T10:30:21.979Z,1007.4
2017-08-12T10:31:21.966Z,1007.4
2017-08-12T10:32:21.946Z,1007.44
2017-08-12T10:33:21.940Z,1007.42
2017-08-12T10:34:21.918Z,1007.39
2017-08-12T10:35:21.897Z,1007.42
2017-08-12T10:36:21.893Z,1007.41
2017-08-12T10:37:21.867Z,1007.35
2017-08-12T10:38:21.851Z,1007.4
2017-08-12T10:39:21.829Z,1007.4
2017-08-12T10:40:21.821Z,1007.46
2017-08-12T10:41:21.803Z,1007.39
2017-08-12T10:42:21.790Z,1007.39
2017-08-12T10:43:21.770Z,1007.4
2017-08-12T10:44:21.752Z,1007.35
2017-08-12T10:45:21.742Z,1007.41
2017-08-12T10:46:21.723Z,1007.43
2017-08-12T10:47:21.701Z,1007.43
2017-08-12T10:48:21.686Z,1007.49
2017-08-12T10:49:21.669Z,1007.4
2017-08-12T10:50:21.653Z,1007.48
2017-08-12T10:51:21.635Z,1007.41
2017-08-12T10:52:21.623Z,1007.45
2017-08-12T10:53:21.602Z,1007.46
2017-08-12T10:54:21.584Z,1007.44
2017-08-12T10:55:21.571Z,1007.49
2017-08-12T10:56:21.553Z,1007.46
2017-08-12T10:57:21.539Z,1007.46
2017-08-12T10:58:21.521Z,1007.39
2017-08-12T10:59:21.514Z,1007.49
2017-08-12T11:00:21.492Z,1007.47
2017-08-12T11:01:21.472Z,1007.45
2017-08-12T11:02:21.463Z,1007.45
2017-08-12T11:03:21.442Z,1007.5
2017-08-12T11:04:21.419Z,1007.49
2017-08-12T11:05:21.409Z,1007.55
2017-08-12T11:06:21.535Z,1007.51
2017-08-12T11:07:21.371Z,1007.53
2017-08-12T11:08:21.367Z,1007.51
2017-08-12T11:09:21.342Z,1007.52
2017-08-12T11:10:21.329Z,1007.54
2017-08-12T11:11:21.306Z,1007.54
2017-08-12T11:12:21.293Z,1007.57
2017-08-12T11:13:21.271Z,1007.58
2017-08-12T11:14:21.259Z,1007.56
2017-08-12T11:15:21.249Z,1007.56
2017-08-12T11:16:21.252Z,1007.61
2017-08-12T11:17:21.205Z,1007.51
2017-08-12T11:18:21.224Z,1007.53
2017-08-12T11:19:21.170Z,1007.52
2017-08-12T11:20:21.163Z,1007.48
2017-08-12T11:21:21.139Z,1007.53
2017-08-12T11:22:21.124Z,1007.54
2017-08-12T11:23:21.112Z,1007.5
2017-08-12T11:24:21.188Z,1007.51
2017-08-12T11:25:21.071Z,1007.52
2017-08-12T11:26:21.081Z,1007.55
2017-08-12T11:27:21.039Z,1007.48
2017-08-12T11:28:21.029Z,1007.51
2017-08-12T11:29:21.004Z,1007.41
2017-08-12T11:30:20.992Z,1007.54
2017-08-12T11:31:20.971Z,1007.51
2017-08-12T11:32:20.958Z,1007.56
2017-08-12T11:33:20.942Z,1007.52
2017-08-12T11:34:20.921Z,1007.46
2017-08-12T11:35:20.910Z,1007.53
2017-08-12T11:36:20.888Z,1007.61
2017-08-12T11:37:20.875Z,1007.51
2017-08-12T11:38:20.860Z,1007.57
2017-08-12T11:39:20.842Z,1007.55
2017-08-12T11:40:20.824Z,1007.56
2017-08-12T11:41:20.809Z,1007.58
2017-08-12T11:42:20.792Z,1007.55
2017-08-12T11:43:20.775Z,1007.54
2017-08-12T11:44:20.760Z,1007.58
2017-08-12T11:45:20.738Z,1007.55
2017-08-12T11:46:20.731Z,1007.55
2017-08-12T11:47:20.708Z,1007.58
2017-08-12T11:48:20.693Z,1007.57
2017-08-12T11:49:20.683Z,1007.51
2017-08-12T11:50:20.662Z,1007.5
2017-08-12T11:51:20.642Z,1007.51
2017-08-12T11:52:20.628Z,1007.5
2017-08-12T11:53:20.610Z,1007.48
2017-08-12T11:54:20.593Z,1007.5
2017-08-12T11:55:20.581Z,1007.53
2017-08-12T11:56:20.562Z,1007.47
2017-08-12T11:57:20.549Z,1007.49
2017-08-12T11:58:20.540Z,1007.52
2017-08-12T11:59:20.518Z,1007.48
2017-08-12T12:00:20.502Z,1007.49
2017-08-12T12:01:20.482Z,1007.51
2017-08-12T12:02:20.465Z,1007.49
2017-08-12T12:03:20.450Z,1007.52
2017-08-12T12:04:20.441Z,1007.58
2017-08-12T12:05:20.415Z,1007.57
2017-08-12T12:06:20.400Z,1007.52
2017-08-12T12:07:20.385Z,1007.53
2017-08-12T12:08:20.370Z,1007.54